Terminal Aerodrome Forecast
Issued by NWS

Home | Current Version | Previous Version | Graphics & Text | Print | Product List | Glossary On
Versions: 1 2 3 4 5 6 7 8 9 10 11 12 13 14 15 16 17
000
FTUS43 KIWX 301403 AAA
TAFSBN
TAF AMD
KSBN 301403Z 3014/0112 23004KT 4SM BR OVC005
     FM301600 31010KT P6SM SCT015
     FM010100 32005KT P6SM BKN250
     FM010900 33005KT P6SM BKN020=

USA.gov is the U.S. government's official web portal to all federal, state and local government web resources and services.